Observation data for McLean on 07/10/2020      Previous  Date  Next       Current Mesonet Observations  Soil Data  Daily Summary Page  Observations in Plain Language
KMCS 100500Z 14009KT 27/19 A2993 RMK A01 T02650189  RH  066%=      5-min Rain = 0
KMCS 100505Z 13009KT 27/19 A2993 RMK A01 T02660190  RH  067%=      5-min Rain = 0
KMCS 100510Z 13010KT 27/19 A2993 RMK A01 T02660192  RH  067%=      5-min Rain = 0
KMCS 100515Z 13009KT 27/19 A2993 RMK A01 T02650194  RH  068%=      5-min Rain = 0
KMCS 100520Z 13011KT 27/20 A2993 RMK A01 T02670197  RH  069%=      5-min Rain = 0
KMCS 100525Z 13011G17KT 27/20 A2993 RMK A01 T02670199  RH  070%=      5-min Rain = 0
KMCS 100530Z 13011KT 27/20 A2993 RMK A01 T02670200  RH  071%=      5-min Rain = 0
KMCS 100535Z 13011KT 27/20 A2993 RMK A01 T02660201  RH  072%=      5-min Rain = 0
KMCS 100540Z 13011KT 27/20 A2993 RMK A01 T02670202  RH  072%=      5-min Rain = 0
KMCS 100545Z 13011KT 27/20 A2993 RMK A01 T02660202  RH  072%=      5-min Rain = 0
KMCS 100550Z 13011KT 27/20 A2993 RMK A01 T02650202  RH  072%=      5-min Rain = 0
KMCS 100555Z 13011KT 27/20 A2993 RMK A01 T02650202  RH  072%=      5-min Rain = 0
KMCS 100600Z 13012KT 27/20 A2993 RMK A01 T02650202  RH  072%=      5-min Rain = 0
KMCS 100605Z 13011KT 26/20 A2993 RMK A01 T02640202  RH  073%=      5-min Rain = 0
KMCS 100610Z 13011KT 26/20 A2993 RMK A01 T02630201  RH  073%=      5-min Rain = 0
KMCS 100615Z 13011KT 26/20 A2993 RMK A01 T02620201  RH  073%=      5-min Rain = 0
KMCS 100620Z 13011KT 26/20 A2993 RMK A01 T02620201  RH  073%=      5-min Rain = 0
KMCS 100625Z 13010G16KT 26/20 A2994 RMK A01 T02610200  RH  073%=      5-min Rain = 0
KMCS 100630Z 13010G16KT 26/20 A2994 RMK A01 T02600200  RH  074%=      5-min Rain = 0
KMCS 100635Z 13010KT 26/20 A2994 RMK A01 T02590200  RH  074%=      5-min Rain = 0
KMCS 100640Z 13011KT 26/20 A2994 RMK A01 T02580200  RH  074%=      5-min Rain = 0
KMCS 100645Z 13010KT 26/20 A2994 RMK A01 T02580200  RH  075%=      5-min Rain = 0
KMCS 100650Z 13010KT 26/20 A2994 RMK A01 T02560200  RH  075%=      5-min Rain = 0
KMCS 100655Z 13010KT 26/20 A2994 RMK A01 T02550199  RH  075%=      5-min Rain = 0
KMCS 100700Z 13010KT 26/20 A2994 RMK A01 T02550199  RH  076%=      5-min Rain = 0
KMCS 100705Z 13010KT 25/20 A2994 RMK A01 T02540199  RH  076%=      5-min Rain = 0
KMCS 100710Z 14010KT 25/20 A2994 RMK A01 T02530199  RH  076%=      5-min Rain = 0
KMCS 100715Z 13010KT 25/20 A2994 RMK A01 T02530199  RH  077%=      5-min Rain = 0
KMCS 100720Z 13010KT 25/20 A2994 RMK A01 T02520199  RH  077%=      5-min Rain = 0
KMCS 100725Z 13010KT 25/20 A2994 RMK A01 T02510199  RH  078%=      5-min Rain = 0
KMCS 100730Z 13010KT 25/20 A2994 RMK A01 T02500199  RH  078%=      5-min Rain = 0
KMCS 100735Z 13009KT 25/20 A2994 RMK A01 T02490199  RH  078%=      5-min Rain = 0
KMCS 100740Z 13009KT 25/20 A2994 RMK A01 T02480199  RH  079%=      5-min Rain = 0
KMCS 100745Z 13009KT 25/20 A2994 RMK A01 T02480199  RH  079%=      5-min Rain = 0
KMCS 100750Z 13009KT 25/20 A2994 RMK A01 T02470199  RH  079%=      5-min Rain = 0
KMCS 100755Z 13009KT 25/20 A2994 RMK A01 T02470199  RH  079%=      5-min Rain = 0
KMCS 100800Z 14008KT 25/20 A2994 RMK A01 T02460199  RH  080%=      5-min Rain = 0
KMCS 100805Z 14008KT 25/20 A2994 RMK A01 T02450199  RH  080%=      5-min Rain = 0
KMCS 100810Z 14008KT 24/20 A2994 RMK A01 T02440199  RH  080%=      5-min Rain = 0
KMCS 100815Z 13007KT 24/20 A2994 RMK A01 T02430199  RH  081%=      5-min Rain = 0
KMCS 100820Z 14007KT 24/20 A2994 RMK A01 T02430199  RH  081%=      5-min Rain = 0
KMCS 100825Z 14008KT 24/20 A2994 RMK A01 T02420199  RH  081%=      5-min Rain = 0
KMCS 100830Z 13007KT 24/20 A2994 RMK A01 T02410199  RH  082%=      5-min Rain = 0
KMCS 100835Z 14007KT 24/20 A2994 RMK A01 T02400199  RH  082%=      5-min Rain = 0
KMCS 100840Z 14007KT 24/20 A2994 RMK A01 T02400199  RH  082%=      5-min Rain = 0
KMCS 100845Z 14007KT 24/20 A2994 RMK A01 T02400199  RH  083%=      5-min Rain = 0
KMCS 100850Z 13007KT 24/20 A2995 RMK A01 T02390199  RH  083%=      5-min Rain = 0
KMCS 100855Z 13007KT 24/20 A2995 RMK A01 T02370199  RH  084%=      5-min Rain = 0
KMCS 100900Z 12008KT 24/20 A2995 RMK A01 T02360199  RH  084%=      5-min Rain = 0
KMCS 100905Z 13008KT 24/20 A2995 RMK A01 T02370199  RH  084%=      5-min Rain = 0
KMCS 100910Z 13008KT 24/20 A2995 RMK A01 T02370199  RH  084%=      5-min Rain = 0
KMCS 100915Z 14007KT 24/20 A2995 RMK A01 T02360199  RH  085%=      5-min Rain = 0
KMCS 100920Z 14007KT 24/20 A2995 RMK A01 T02350199  RH  085%=      5-min Rain = 0
KMCS 100925Z 14007KT 23/20 A2995 RMK A01 T02340199  RH  085%=      5-min Rain = 0
KMCS 100930Z 13007KT 23/20 A2995 RMK A01 T02340199  RH  086%=      5-min Rain = 0
KMCS 100935Z 13007KT 23/20 A2995 RMK A01 T02330199  RH  086%=      5-min Rain = 0
KMCS 100940Z 13007KT 23/20 A2995 RMK A01 T02320199  RH  086%=      5-min Rain = 0
KMCS 100945Z 13007KT 23/20 A2995 RMK A01 T02320199  RH  086%=      5-min Rain = 0
KMCS 100950Z 12007KT 23/20 A2995 RMK A01 T02320199  RH  087%=      5-min Rain = 0
KMCS 100955Z 12006KT 23/20 A2995 RMK A01 T02310199  RH  087%=      5-min Rain = 0
KMCS 101000Z 12007KT 23/20 A2996 RMK A01 T02310199  RH  087%=      5-min Rain = 0
KMCS 101005Z 12007KT 23/20 A2996 RMK A01 T02310199  RH  087%=      5-min Rain = 0
KMCS 101010Z 12007KT 23/20 A2996 RMK A01 T02300199  RH  088%=      5-min Rain = 0
KMCS 101015Z 12006KT 23/20 A2996 RMK A01 T02290199  RH  088%=      5-min Rain = 0
KMCS 101020Z 11008KT 23/20 A2996 RMK A01 T02280199  RH  089%=      5-min Rain = 0
KMCS 101025Z 11006KT 23/20 A2997 RMK A01 T02270199  RH  089%=      5-min Rain = 0
KMCS 101030Z 11007KT 23/20 A2997 RMK A01 T02260199  RH  090%=      5-min Rain = 0
KMCS 101035Z 11007KT 23/20 A2997 RMK A01 T02250199  RH  090%=      5-min Rain = 0
KMCS 101040Z 12006KT 23/20 A2997 RMK A01 T02250199  RH  090%=      5-min Rain = 0
KMCS 101045Z 12005KT 23/20 A2997 RMK A01 T02250199  RH  090%=      5-min Rain = 0
KMCS 101050Z 12006KT 23/20 A2998 RMK A01 T02250199  RH  091%=      5-min Rain = 0
KMCS 101055Z 13007KT 22/20 A2997 RMK A01 T02230199  RH  091%=      5-min Rain = 0
KMCS 101100Z 14007KT 22/20 A2997 RMK A01 T02220198  RH  092%=      5-min Rain = 0
KMCS 101105Z 14007KT 22/20 A2997 RMK A01 T02220199  RH  092%=      5-min Rain = 0
KMCS 101110Z 14006KT 22/20 A2998 RMK A01 T02220199  RH  091%=      5-min Rain = 0
KMCS 101115Z 13006KT 22/20 A2998 RMK A01 T02220198  RH  092%=      5-min Rain = 0
KMCS 101120Z 13006KT 22/20 A2998 RMK A01 T02210198  RH  092%=      5-min Rain = 0
KMCS 101125Z 13006KT 22/20 A2998 RMK A01 T02210198  RH  092%=      5-min Rain = 0
KMCS 101130Z 13006KT 22/20 A2998 RMK A01 T02200198  RH  092%=      5-min Rain = 0
KMCS 101135Z 13005KT 22/20 A2998 RMK A01 T02200198  RH  092%=      5-min Rain = 0
KMCS 101140Z 13004KT 22/20 A2999 RMK A01 T02200198  RH  093%=      5-min Rain = 0
KMCS 101145Z 12004KT 22/20 A2999 RMK A01 T02200198  RH  092%=      5-min Rain = 0
KMCS 101150Z 12006KT 22/20 A2999 RMK A01 T02200198  RH  092%=      5-min Rain = 0
KMCS 101155Z 12005KT 22/20 A2999 RMK A01 T02190197  RH  093%=      5-min Rain = 0
KMCS 101200Z 11002KT 22/20 A2999 RMK A01 T02190197  RH  093%=      5-min Rain = 0
KMCS 101205Z 09003KT 22/20 A30 RMK A01 T02190197  RH  093%=      5-min Rain = 0
KMCS 101210Z 08004KT 22/20 A30 RMK A01 T02200198  RH  092%=      5-min Rain = 0
KMCS 101215Z 06003KT 22/20 A3001 RMK A01 T02210198  RH  092%=      5-min Rain = 0
KMCS 101220Z 10003KT 22/20 A3001 RMK A01 T02220199  RH  092%=      5-min Rain = 0
KMCS 101225Z 13005KT 23/20 A30 RMK A01 T02250200  RH  091%=      5-min Rain = 0
KMCS 101230Z 13005KT 23/20 A30 RMK A01 T02270199  RH  089%=      5-min Rain = 0
KMCS 101235Z 13005KT 23/20 A30 RMK A01 T02290200  RH  088%=      5-min Rain = 0
KMCS 101240Z 12006KT 23/20 A30 RMK A01 T02320200  RH  087%=      5-min Rain = 0
KMCS 101245Z 13007KT 23/20 A30 RMK A01 T02340200  RH  086%=      5-min Rain = 0
KMCS 101250Z 13006KT 24/20 A3001 RMK A01 T02360200  RH  085%=      5-min Rain = 0
KMCS 101255Z 13005KT 24/20 A3001 RMK A01 T02390201  RH  084%=      5-min Rain = 0
KMCS 101300Z 13005KT 24/20 A3001 RMK A01 T02420201  RH  082%=      5-min Rain = 0
KMCS 101305Z 13005KT 24/20 A3001 RMK A01 T02440201  RH  082%=      5-min Rain = 0
KMCS 101310Z 14007KT 24/20 A3001 RMK A01 T02430199  RH  081%=      5-min Rain = 0
KMCS 101315Z 15008G13KT 24/20 A3001 RMK A01 T02430198  RH  081%=      5-min Rain = 0
KMCS 101320Z 15005KT 24/20 A3002 RMK A01 T02440198  RH  080%=      5-min Rain = 0
KMCS 101325Z 15005KT 25/20 A3002 RMK A01 T02500199  RH  077%=      5-min Rain = 0
KMCS 101330Z 16008KT 25/20 A3002 RMK A01 T02530198  RH  076%=      5-min Rain = 0
KMCS 101335Z 16008KT 25/20 A3002 RMK A01 T02540198  RH  075%=      5-min Rain = 0
KMCS 101340Z 16010KT 26/20 A3002 RMK A01 T02550197  RH  074%=      5-min Rain = 0
KMCS 101345Z 16007G12KT 25/20 A3002 RMK A01 T02520196  RH  076%=      5-min Rain = 0
KMCS 101350Z 16009KT 25/20 A3002 RMK A01 T02520196  RH  075%=      5-min Rain = 0
KMCS 101355Z 16010KT 25/20 A3002 RMK A01 T02520196  RH  075%=      5-min Rain = 0
KMCS 101400Z 16011KT 26/20 A3002 RMK A01 T02550197  RH  074%=      5-min Rain = 0
KMCS 101405Z 16011KT 26/20 A3002 RMK A01 T02600197  RH  072%=      5-min Rain = 0
KMCS 101410Z 16010KT 26/20 A3002 RMK A01 T02600196  RH  072%=      5-min Rain = 0
KMCS 101415Z 16011KT 26/20 A3002 RMK A01 T02610195  RH  071%=      5-min Rain = 0
KMCS 101420Z 16009KT 26/20 A3002 RMK A01 T02630195  RH  070%=      5-min Rain = 0
KMCS 101425Z 16012KT 27/20 A3002 RMK A01 T02680195  RH  068%=      5-min Rain = 0
KMCS 101430Z 16010G15KT 27/20 A3002 RMK A01 T02690195  RH  067%=      5-min Rain = 0
KMCS 101435Z 16009G14KT 27/19 A3002 RMK A01 T02690194  RH  067%=      5-min Rain = 0
KMCS 101440Z 16010KT 27/19 A3003 RMK A01 T02710194  RH  067%=      5-min Rain = 0
KMCS 101445Z 17008G13KT 27/20 A3003 RMK A01 T02730195  RH  066%=      5-min Rain = 0
KMCS 101450Z 17008KT 28/19 A3004 RMK A01 T02750193  RH  064%=      5-min Rain = 0
KMCS 101455Z 17008KT 28/19 A3004 RMK A01 T02750194  RH  065%=      5-min Rain = 0
KMCS 101500Z 16008KT 28/19 A3004 RMK A01 T02760193  RH  064%=      5-min Rain = 0
KMCS 101505Z 15007KT 28/19 A3005 RMK A01 T02770193  RH  064%=      5-min Rain = 0
KMCS 101510Z 16006KT 28/19 A3005 RMK A01 T02790194  RH  063%=      5-min Rain = 0
KMCS 101515Z 16007KT 28/19 A3005 RMK A01 T02820194  RH  062%=      5-min Rain = 0
KMCS 101520Z 18006KT 28/19 A3005 RMK A01 T02840192  RH  061%=      5-min Rain = 0
KMCS 101525Z 16006KT 29/19 A3005 RMK A01 T02850193  RH  061%=      5-min Rain = 0
KMCS 101530Z 18007KT 29/19 A3005 RMK A01 T02910194  RH  059%=      5-min Rain = 0
KMCS 101535Z 17008KT 30/19 A3005 RMK A01 T02950193  RH  057%=      5-min Rain = 0
KMCS 101540Z 16006KT 30/20 A3005 RMK A01 T02990195  RH  057%=      5-min Rain = 0
KMCS 101545Z 16006G11KT 30/19 A3004 RMK A01 T02990194  RH  057%=      5-min Rain = 0
KMCS 101550Z 15007KT 30/20 A3004 RMK A01 T03030195  RH  055%=      5-min Rain = 0
KMCS 101555Z 15008KT 30/20 A3004 RMK A01 T03010195  RH  056%=      5-min Rain = 0
KMCS 101600Z 16009KT 30/19 A3004 RMK A01 T03010192  RH  055%=      5-min Rain = 0
KMCS 101605Z 15007KT 30/19 A3005 RMK A01 T03020193  RH  055%=      5-min Rain = 0
KMCS 101610Z 17008KT 31/19 A3005 RMK A01 T03060192  RH  054%=      5-min Rain = 0
KMCS 101615Z 18010KT 31/19 A3005 RMK A01 T03060190  RH  053%=      5-min Rain = 0
KMCS 101620Z 17007G12KT 31/19 A3005 RMK A01 T03060191  RH  053%=      5-min Rain = 0
KMCS 101625Z 16006KT 31/19 A3005 RMK A01 T03080192  RH  053%=      5-min Rain = 0
KMCS 101630Z 17007KT 31/19 A3005 RMK A01 T03130188  RH  050%=      5-min Rain = 0
KMCS 101635Z 16006KT 32/19 A3005 RMK A01 T03160188  RH  049%=      5-min Rain = 0
KMCS 101640Z 12006KT 32/19 A3006 RMK A01 T03160189  RH  050%=      5-min Rain = 0
KMCS 101645Z 12008KT 32/19 A3006 RMK A01 T03170188  RH  049%=      5-min Rain = 0
KMCS 101650Z 11008KT 32/19 A3006 RMK A01 T03180187  RH  048%=      5-min Rain = 0
KMCS 101655Z 10008KT 32/19 A3006 RMK A01 T03210191  RH  049%=      5-min Rain = 0
KMCS 101700Z 09010KT 33/19 A3006 RMK A01 T03250191  RH  048%=      5-min Rain = 0
KMCS 101705Z 12010KT 33/19 A3007 RMK A01 T03280191  RH  047%=      5-min Rain = 0
KMCS 101710Z 11012G17KT 33/19 A3007 RMK A01 T03260190  RH  047%=      5-min Rain = 0
KMCS 101715Z 11012G17KT 33/19 A3007 RMK A01 T03270192  RH  048%=      5-min Rain = 0
KMCS 101720Z 11012G18KT 33/19 A3007 RMK A01 T03250193  RH  048%=      5-min Rain = 0
KMCS 101725Z 11012G17KT 33/19 A3007 RMK A01 T03280193  RH  048%=      5-min Rain = 0
KMCS 101730Z 10011G19KT 32/19 A3008 RMK A01 T03240190  RH  048%=      5-min Rain = 0
KMCS 101735Z 10013G19KT 32/19 A3008 RMK A01 T03240187  RH  047%=      5-min Rain = 0
KMCS 101740Z 11014G19KT 32/19 A3007 RMK A01 T03230185  RH  046%=      5-min Rain = 0
KMCS 101745Z 12013G20KT 33/18 A3007 RMK A01 T03260184  RH  045%=      5-min Rain = 0
KMCS 101750Z 12011G16KT 33/19 A3007 RMK A01 T03270187  RH  046%=      5-min Rain = 0
KMCS 101755Z 12015G21KT 33/19 A3007 RMK A01 T03290191  RH  047%=      5-min Rain = 0
KMCS 101800Z 11015G21KT 33/19 A3007 RMK A01 T03290189  RH  046%=      5-min Rain = 0
KMCS 101805Z 12018G26KT 33/20 A3007 RMK A01 T03280195  RH  048%=      5-min Rain = 0
KMCS 101810Z 11017G25KT 33/20 A3007 RMK A01 T03260196  RH  049%=      5-min Rain = 0
KMCS 101815Z 11020G29KT 32/20 A3007 RMK A01 T03190199  RH  052%=      5-min Rain = 0
KMCS 101820Z 10018G25KT 32/20 A3007 RMK A01 T03190200  RH  052%=      5-min Rain = 0
KMCS 101825Z 11018G28KT 32/20 A3007 RMK A01 T03210199  RH  051%=      5-min Rain = 0
KMCS 101830Z 11019G26KT 32/20 A3007 RMK A01 T03180200  RH  053%=      5-min Rain = 0
KMCS 101835Z 12016G24KT 32/20 A3007 RMK A01 T03210200  RH  052%=      5-min Rain = 0
KMCS 101840Z 12017G22KT 32/20 A3007 RMK A01 T03210199  RH  051%=      5-min Rain = 0
KMCS 101845Z 13016G23KT 32/20 A3007 RMK A01 T03240198  RH  050%=      5-min Rain = 0
KMCS 101850Z 14019G27KT 32/20 A3006 RMK A01 T03230197  RH  050%=      5-min Rain = 0
KMCS 101855Z 13018G24KT 32/20 A3006 RMK A01 T03240198  RH  050%=      5-min Rain = 0
KMCS 101900Z 13019G25KT 32/20 A3005 RMK A01 T03240198  RH  050%=      5-min Rain = 0
KMCS 101905Z 14019G25KT 33/20 A3005 RMK A01 T03250200  RH  051%=      5-min Rain = 0
KMCS 101910Z 14018G25KT 33/20 A3005 RMK A01 T03250199  RH  050%=      5-min Rain = 0
KMCS 101915Z 15018G25KT 33/20 A3005 RMK A01 T03270195  RH  048%=      5-min Rain = 0
KMCS 101920Z 14019G27KT 33/20 A3005 RMK A01 T03270195  RH  048%=      5-min Rain = 0
KMCS 101925Z 14019G27KT 33/20 A3005 RMK A01 T03310198  RH  048%=      5-min Rain = 0
KMCS 101930Z 15018G25KT 33/20 A3005 RMK A01 T03310197  RH  048%=      5-min Rain = 0
KMCS 101935Z 16016G23KT 33/20 A3004 RMK A01 T03300198  RH  049%=      5-min Rain = 0
KMCS 101940Z 15017G25KT 33/20 A3004 RMK A01 T03330197  RH  047%=      5-min Rain = 0
KMCS 101945Z 14019G27KT 33/20 A3004 RMK A01 T03340201  RH  049%=      5-min Rain = 0
KMCS 101950Z 16017G27KT 33/20 A3004 RMK A01 T03320200  RH  049%=      5-min Rain = 0
KMCS 101955Z 16020G29KT 33/20 A3003 RMK A01 T03340197  RH  047%=      5-min Rain = 0
KMCS 102000Z 15018G26KT 34/19 A3003 RMK A01 T03360194  RH  046%=      5-min Rain = 0
KMCS 102005Z 15017G28KT 34/19 A3003 RMK A01 T03420192  RH  044%=      5-min Rain = 0
KMCS 102010Z 15020G28KT 34/19 A3003 RMK A01 T03390194  RH  045%=      5-min Rain = 0
KMCS 102015Z 15020G30KT 34/19 A3003 RMK A01 T03370193  RH  045%=      5-min Rain = 0
KMCS 102020Z 15020G30KT 34/20 A3004 RMK A01 T03370195  RH  046%=      5-min Rain = 0
KMCS 102025Z 15020G28KT 34/20 A3004 RMK A01 T03370196  RH  046%=      5-min Rain = 0
KMCS 102030Z 15017G26KT 34/19 A3004 RMK A01 T03370194  RH  045%=      5-min Rain = 0
KMCS 102035Z 16019G29KT 34/20 A3004 RMK A01 T03360196  RH  046%=      5-min Rain = 0
KMCS 102040Z 16019G29KT 34/20 A3004 RMK A01 T03370197  RH  046%=      5-min Rain = 0
KMCS 102045Z 15020G29KT 34/19 A3004 RMK A01 T03390194  RH  045%=      5-min Rain = 0
KMCS 102050Z 15021G27KT 34/20 A3003 RMK A01 T03380196  RH  046%=      5-min Rain = 0
KMCS 102055Z 15019G26KT 34/20 A3003 RMK A01 T03380195  RH  046%=      5-min Rain = 0
KMCS 102100Z 15020G29KT 34/20 A3003 RMK A01 T03430195  RH  044%=      5-min Rain = 0
KMCS 102105Z 16017G24KT 34/19 A3003 RMK A01 T03440193  RH  043%=      5-min Rain = 0
KMCS 102110Z 15020G27KT 34/19 A3003 RMK A01 T03430194  RH  044%=      5-min Rain = 0
KMCS 102115Z 16017G25KT 35/19 A3003 RMK A01 T03450193  RH  043%=      5-min Rain = 0
KMCS 102120Z 16020G29KT 34/19 A3002 RMK A01 T03440188  RH  042%=      5-min Rain = 0
KMCS 102125Z 16018G25KT 35/19 A3002 RMK A01 T03450192  RH  043%=      5-min Rain = 0
KMCS 102130Z 16019G26KT 35/19 A3002 RMK A01 T03470190  RH  042%=      5-min Rain = 0
KMCS 102135Z 16018G25KT 35/20 A3002 RMK A01 T03470195  RH  043%=      5-min Rain = 0
KMCS 102140Z 16018G27KT 35/19 A3002 RMK A01 T03500189  RH  041%=      5-min Rain = 0
KMCS 102145Z 16018G27KT 35/19 A3002 RMK A01 T03490189  RH  041%=      5-min Rain = 0
KMCS 102150Z 16018G24KT 35/19 A3002 RMK A01 T03490193  RH  042%=      5-min Rain = 0
KMCS 102155Z 16020G29KT 35/19 A3002 RMK A01 T03480192  RH  042%=      5-min Rain = 0
KMCS 102200Z 16019G26KT 35/19 A3002 RMK A01 T03480189  RH  042%=      5-min Rain = 0
KMCS 102205Z 16019G29KT 35/19 A3001 RMK A01 T03470187  RH  041%=      5-min Rain = 0
KMCS 102210Z 16020G27KT 35/19 A3001 RMK A01 T03470186  RH  041%=      5-min Rain = 0
KMCS 102215Z 15019G26KT 35/19 A3001 RMK A01 T03480189  RH  042%=      5-min Rain = 0
KMCS 102220Z 15020G26KT 35/20 A3001 RMK A01 T03470196  RH  043%=      5-min Rain = 0
KMCS 102225Z 16018G24KT 35/20 A3001 RMK A01 T03480196  RH  043%=      5-min Rain = 0
KMCS 102230Z 16019G28KT 35/19 A3001 RMK A01 T03490194  RH  043%=      5-min Rain = 0
KMCS 102235Z 16017G28KT 35/20 A3001 RMK A01 T03450196  RH  044%=      5-min Rain = 0
KMCS 102240Z 15022G28KT 34/20 A3001 RMK A01 T03440197  RH  044%=      5-min Rain = 0
KMCS 102245Z 16017G26KT 34/20 A3001 RMK A01 T03440196  RH  044%=      5-min Rain = 0
KMCS 102250Z 16019G28KT 35/20 A3001 RMK A01 T03460200  RH  045%=      5-min Rain = 0
KMCS 102255Z 16017G25KT 35/20 A3001 RMK A01 T03450201  RH  045%=      5-min Rain = 0
KMCS 102300Z 16018G24KT 34/20 A3001 RMK A01 T03430197  RH  045%=      5-min Rain = 0
KMCS 102305Z 16018G24KT 34/20 A3001 RMK A01 T03430199  RH  046%=      5-min Rain = 0
KMCS 102310Z 16019G29KT 34/20 A3001 RMK A01 T03430199  RH  045%=      5-min Rain = 0
KMCS 102315Z 16018G29KT 34/20 A3001 RMK A01 T03410201  RH  047%=      5-min Rain = 0
KMCS 102320Z 16021G28KT 34/20 A30 RMK A01 T03390203  RH  048%=      5-min Rain = 0
KMCS 102325Z 17018G26KT 34/20 A30 RMK A01 T03400204  RH  048%=      5-min Rain = 0
KMCS 102330Z 16019G26KT 34/20 A30 RMK A01 T03400203  RH  048%=      5-min Rain = 0
KMCS 102335Z 15018G24KT 34/20 A30 RMK A01 T03400203  RH  048%=      5-min Rain = 0
KMCS 102340Z 16016G22KT 34/21 A30 RMK A01 T03390205  RH  048%=      5-min Rain = 0
KMCS 102345Z 16019G28KT 34/20 A30 RMK A01 T03400203  RH  047%=      5-min Rain = 0
KMCS 102350Z 16019G28KT 34/20 A30 RMK A01 T03390203  RH  047%=      5-min Rain = 0
KMCS 102355Z 16016G25KT 34/20 A30 RMK A01 T03400202  RH  047%=      5-min Rain = 0
KMCS 110000Z 16016G23KT 34/20 A30 RMK A01 T03410201  RH  047%=      5-min Rain = 0
KMCS 110005Z 17020G28KT 34/20 A30 RMK A01 T03410197  RH  045%=      5-min Rain = 0
KMCS 110010Z 16017G22KT 34/20 A30 RMK A01 T03400196  RH  045%=      5-min Rain = 0
KMCS 110015Z 16017G24KT 34/20 A30 RMK A01 T03410197  RH  045%=      5-min Rain = 0
KMCS 110020Z 16015G21KT 34/20 A30 RMK A01 T03410197  RH  045%=      5-min Rain = 0
KMCS 110025Z 15016G22KT 34/20 A30 RMK A01 T03400197  RH  046%=      5-min Rain = 0
KMCS 110030Z 16016G22KT 34/20 A30 RMK A01 T03390196  RH  045%=      5-min Rain = 0
KMCS 110035Z 17017G25KT 34/19 A30 RMK A01 T03390194  RH  045%=      5-min Rain = 0
KMCS 110040Z 17016G23KT 34/19 A3001 RMK A01 T03370194  RH  045%=      5-min Rain = 0
KMCS 110045Z 16015G21KT 34/19 A3001 RMK A01 T03370192  RH  045%=      5-min Rain = 0
KMCS 110050Z 16017G23KT 34/19 A3001 RMK A01 T03360192  RH  045%=      5-min Rain = 0
KMCS 110055Z 16014G21KT 34/19 A3001 RMK A01 T03350193  RH  046%=      5-min Rain = 0
KMCS 110100Z 16017G22KT 33/19 A30 RMK A01 T03340193  RH  046%=      5-min Rain = 0
KMCS 110105Z 16017G23KT 33/19 A30 RMK A01 T03330192  RH  046%=      5-min Rain = 0
KMCS 110110Z 16015G21KT 33/19 A30 RMK A01 T03320192  RH  046%=      5-min Rain = 0
KMCS 110115Z 16014G20KT 33/19 A30 RMK A01 T03310192  RH  046%=      5-min Rain = 0
KMCS 110120Z 15014G20KT 33/19 A30 RMK A01 T03300191  RH  047%=      5-min Rain = 0
KMCS 110125Z 16014G20KT 33/19 A30 RMK A01 T03280191  RH  047%=      5-min Rain = 0
KMCS 110130Z 16015G22KT 33/19 A30 RMK A01 T03270189  RH  046%=      5-min Rain = 0
KMCS 110135Z 16013G19KT 33/19 A30 RMK A01 T03260188  RH  046%=      5-min Rain = 0
KMCS 110140Z 15014KT 32/19 A30 RMK A01 T03240189  RH  047%=      5-min Rain = 0
KMCS 110145Z 15012G19KT 32/19 A3001 RMK A01 T03230189  RH  048%=      5-min Rain = 0
KMCS 110150Z 15012G18KT 32/19 A3001 RMK A01 T03210188  RH  048%=      5-min Rain = 0
KMCS 110155Z 15012G18KT 32/19 A3001 RMK A01 T03200188  RH  048%=      5-min Rain = 0
KMCS 110200Z 15012KT 32/19 A3001 RMK A01 T03180188  RH  049%=      5-min Rain = 0
KMCS 110205Z 15011G17KT 32/19 A3001 RMK A01 T03170188  RH  049%=      5-min Rain = 0
KMCS 110210Z 15011KT 32/19 A3001 RMK A01 T03150188  RH  050%=      5-min Rain = 0
KMCS 110215Z 15011G16KT 31/19 A3001 RMK A01 T03130188  RH  050%=      5-min Rain = 0
KMCS 110220Z 15010KT 31/19 A3001 RMK A01 T03120188  RH  051%=      5-min Rain = 0
KMCS 110225Z 14010G15KT 31/19 A3001 RMK A01 T03100188  RH  051%=      5-min Rain = 0
KMCS 110230Z 13011G16KT 31/19 A3001 RMK A01 T03070190  RH  053%=      5-min Rain = 0
KMCS 110235Z 13010G15KT 30/20 A3001 RMK A01 T03010197  RH  057%=      5-min Rain = 0
KMCS 110240Z 13010KT 30/20 A3001 RMK A01 T02970197  RH  058%=      5-min Rain = 0
KMCS 110245Z 13011KT 30/20 A3001 RMK A01 T02950198  RH  059%=      5-min Rain = 0
KMCS 110250Z 14009KT 29/20 A3002 RMK A01 T02920198  RH  060%=      5-min Rain = 0
KMCS 110255Z 14010KT 29/20 A3002 RMK A01 T02910198  RH  061%=      5-min Rain = 0
KMCS 110300Z 13009KT 29/20 A3002 RMK A01 T02890198  RH  061%=      5-min Rain = 0
KMCS 110305Z 13009KT 29/20 A3002 RMK A01 T02870198  RH  062%=      5-min Rain = 0
KMCS 110310Z 13009KT 29/20 A3002 RMK A01 T02850198  RH  063%=      5-min Rain = 0
KMCS 110315Z 12009KT 28/20 A3002 RMK A01 T02830198  RH  063%=      5-min Rain = 0
KMCS 110320Z 12009KT 28/20 A3002 RMK A01 T02820198  RH  064%=      5-min Rain = 0
KMCS 110325Z 12009KT 28/20 A3002 RMK A01 T02800198  RH  065%=      5-min Rain = 0
KMCS 110330Z 12010KT 28/20 A3003 RMK A01 T02790198  RH  065%=      5-min Rain = 0
KMCS 110335Z 12009KT 28/20 A3003 RMK A01 T02770199  RH  066%=      5-min Rain = 0
KMCS 110340Z 12010KT 28/20 A3003 RMK A01 T02760199  RH  067%=      5-min Rain = 0
KMCS 110345Z 12010KT 28/20 A3003 RMK A01 T02750199  RH  067%=      5-min Rain = 0
KMCS 110350Z 13008KT 27/20 A3003 RMK A01 T02730200  RH  068%=      5-min Rain = 0
KMCS 110355Z 12009KT 27/20 A3003 RMK A01 T02720200  RH  069%=      5-min Rain = 0
KMCS 110400Z 12009KT 27/20 A3003 RMK A01 T02710201  RH  069%=      5-min Rain = 0
KMCS 110405Z 12010KT 27/20 A3003 RMK A01 T02700201  RH  070%=      5-min Rain = 0
KMCS 110410Z 13010KT 27/20 A3004 RMK A01 T02700201  RH  070%=      5-min Rain = 0
KMCS 110415Z 13010KT 27/20 A3003 RMK A01 T02690201  RH  070%=      5-min Rain = 0
KMCS 110420Z 13010KT 27/20 A3003 RMK A01 T02680201  RH  070%=      5-min Rain = 0
KMCS 110425Z 13009KT 27/20 A3004 RMK A01 T02680200  RH  071%=      5-min Rain = 0
KMCS 110430Z 13010KT 27/20 A3004 RMK A01 T02670200  RH  071%=      5-min Rain = 0
KMCS 110435Z 13010KT 27/20 A3004 RMK A01 T02660201  RH  071%=      5-min Rain = 0
KMCS 110440Z 13010KT 27/20 A3004 RMK A01 T02650200  RH  072%=      5-min Rain = 0
KMCS 110445Z 13010KT 26/20 A3004 RMK A01 T02640200  RH  072%=      5-min Rain = 0
KMCS 110450Z 13010KT 26/20 A3004 RMK A01 T02630200  RH  073%=      5-min Rain = 0
KMCS 110455Z 13010KT 26/20 A3004 RMK A01 T02610201  RH  073%=      5-min Rain = 0

Page generated in 0.0094 seconds.